Time;durP1;ratioP1;P1;durP2;ratioP2;P2;SDS_P1;SDS_P2;PMS_P1;PMS_P2;Temp;Humidity;BMP_temperature;BMP_pressure;BME280_temperature;BME280_humidity;BME280_pressure;Samples;Min_cycle;Max_cycle;Signal;HPM_P1;HPM_P2
2021/07/20 00:00:16;;;;;;;11.55;8.35;;;26.40;68.40;;;;;;4396075;32;20084;-72
2021/07/20 00:02:45;;;;;;;10.07;7.72;;;26.40;66.00;;;;;;4371519;32;20077;-72
2021/07/20 00:05:12;;;;;;;10.05;7.95;;;26.40;67.00;;;;;;4382888;32;20150;-72
2021/07/20 00:07:39;;;;;;;12.40;7.87;;;26.30;67.00;;;;;;4370284;32;20104;-73
2021/07/20 00:10:12;;;;;;;10.73;7.78;;;26.40;65.60;;;;;;4382905;32;20142;-71
2021/07/20 00:12:38;;;;;;;9.32;7.82;;;26.30;64.10;;;;;;4370236;32;20092;-72
2021/07/20 00:15:07;;;;;;;12.40;7.62;;;26.40;65.60;;;;;;4382284;32;20069;-73
2021/07/20 00:17:33;;;;;;;12.05;8.15;;;26.40;65.90;;;;;;4369708;32;20592;-72
2021/07/20 00:20:01;;;;;;;11.65;7.75;;;26.30;66.20;;;;;;4394856;32;20108;-72
2021/07/20 00:22:27;;;;;;;10.20;7.53;;;26.40;65.00;;;;;;4382381;32;20432;-73
2021/07/20 00:24:53;;;;;;;12.20;8.02;;;26.40;64.50;;;;;;4382206;32;20503;-72
2021/07/20 00:27:19;;;;;;;9.63;7.25;;;26.30;67.50;;;;;;4407593;32;20160;-72
2021/07/20 00:29:46;;;;;;;11.57;7.80;;;26.20;67.10;;;;;;4408041;32;20165;-73
2021/07/20 00:32:12;;;;;;;12.35;8.32;;;26.10;68.40;;;;;;4395309;32;20129;-73
2021/07/20 00:34:40;;;;;;;11.60;8.30;;;26.10;68.70;;;;;;4407663;32;20093;-73
2021/07/20 00:37:06;;;;;;;10.75;7.35;;;26.20;67.70;;;;;;4382275;32;20178;-73
2021/07/20 00:39:33;;;;;;;11.73;7.85;;;26.30;65.50;;;;;;4357727;32;20211;-73
2021/07/20 00:41:59;;;;;;;12.05;7.70;;;26.50;64.50;;;;;;4394706;32;20081;-73
2021/07/20 00:44:26;;;;;;;12.37;8.55;;;26.50;64.90;;;;;;4370006;32;20064;-74
2021/07/20 00:46:52;;;;;;;10.27;7.55;;;26.70;64.10;;;;;;4381711;32;20081;-72
2021/07/20 00:49:19;;;;;;;10.98;8.25;;;26.60;63.80;;;;;;4394862;32;20088;-73
2021/07/20 00:51:45;;;;;;;10.77;7.82;;;26.60;64.60;;;;;;4406785;32;20084;-73
2021/07/20 00:54:11;;;;;;;10.68;7.50;;;26.60;63.90;;;;;;4406968;32;20088;-72
2021/07/20 00:56:37;;;;;;;9.45;7.80;;;26.80;62.30;;;;;;4382039;32;20089;-74
2021/07/20 00:59:03;;;;;;;10.75;7.43;;;26.80;62.60;;;;;;4369374;32;20062;-73
2021/07/20 01:01:30;;;;;;;9.73;7.37;;;26.80;62.90;;;;;;4394502;32;20077;-73
2021/07/20 01:03:56;;;;;;;10.10;7.35;;;26.80;62.10;;;;;;4381879;32;20150;-73
2021/07/20 01:06:23;;;;;;;10.27;6.80;;;26.80;62.10;;;;;;4382010;32;20061;-72
2021/07/20 01:08:51;;;;;;;11.12;7.70;;;26.90;61.50;;;;;;4369299;32;20089;-73
2021/07/20 01:11:18;;;;;;;10.68;7.60;;;26.90;61.20;;;;;;4381900;32;20491;-72
2021/07/20 01:13:45;;;;;;;9.90;7.62;;;26.90;62.10;;;;;;4369620;32;20072;-72
2021/07/20 01:16:12;;;;;;;10.55;7.30;;;26.90;61.80;;;;;;4369187;32;20151;-73
2021/07/20 01:18:39;;;;;;;11.73;7.50;;;26.90;62.00;;;;;;4381680;32;20093;-72
2021/07/20 01:21:09;;;;;;;10.80;8.20;;;26.90;61.90;;;;;;4381419;32;20089;-72
2021/07/20 01:23:37;;;;;;;9.88;6.75;;;26.90;62.60;;;;;;4370141;32;20084;-72
2021/07/20 01:26:05;;;;;;;12.30;7.82;;;26.80;64.90;;;;;;4369189;32;20099;-72
2021/07/20 01:28:31;;;;;;;13.02;7.85;;;26.60;65.60;;;;;;4369097;32;20076;-72
2021/07/20 01:31:04;;;;;;;10.75;7.85;;;26.60;66.10;;;;;;4383424;32;20100;-72
2021/07/20 01:33:33;;;;;;;10.85;7.90;;;26.70;63.40;;;;;;4386489;32;20076;-72
2021/07/20 01:36:01;;;;;;;10.57;7.53;;;26.80;64.30;;;;;;4384684;32;20081;-72
2021/07/20 01:38:27;;;;;;;9.98;7.32;;;26.80;64.30;;;;;;4383562;32;20109;-72
2021/07/20 01:40:58;;;;;;;9.98;8.10;;;26.80;62.90;;;;;;4384179;32;20105;-72
2021/07/20 01:43:24;;;;;;;9.50;7.28;;;26.90;61.80;;;;;;4382361;32;20637;-72
2021/07/20 01:45:50;;;;;;;12.85;7.40;;;26.90;61.80;;;;;;4393849;32;20081;-71
2021/07/20 01:48:16;;;;;;;9.48;7.55;;;27.10;60.90;;;;;;4368794;32;20166;-72
2021/07/20 01:50:43;;;;;;;10.13;7.68;;;27.10;61.20;;;;;;4380923;32;20086;-75
2021/07/20 01:53:09;;;;;;;13.73;8.02;;;27.10;61.50;;;;;;4393565;32;20085;-73
2021/07/20 01:55:35;;;;;;;11.63;7.82;;;27.10;61.40;;;;;;4381380;32;20083;-73
2021/07/20 01:58:01;;;;;;;10.93;8.10;;;27.10;61.50;;;;;;4380940;32;20145;-72
2021/07/20 02:00:27;;;;;;;10.60;8.70;;;27.10;63.80;;;;;;4393506;32;20081;-73
2021/07/20 02:08:48;;;;;;;11.07;8.00;;;27.00;67.60;;;;;;4395170;32;20076;-73
2021/07/20 02:11:28;;;;;;;11.05;8.82;;;27.00;67.10;;;;;;4368539;32;20594;-73
2021/07/20 02:14:00;;;;;;;11.07;8.18;;;27.10;64.10;;;;;;4382252;32;20076;-73
2021/07/20 02:16:29;;;;;;;11.73;7.72;;;27.20;63.70;;;;;;4369282;32;20081;-72
2021/07/20 02:19:06;;;;;;;10.88;7.53;;;27.20;63.80;;;;;;4356173;32;20081;-72
2021/07/20 02:21:32;;;;;;;13.27;7.15;;;27.20;64.00;;;;;;4393128;32;20077;-71
2021/07/20 02:23:58;;;;;;;10.25;7.70;;;27.20;64.70;;;;;;4405493;32;20532;-73
2021/07/20 02:26:25;;;;;;;12.80;8.00;;;27.30;64.40;;;;;;4380407;32;20105;-73
2021/07/20 02:28:53;;;;;;;11.38;8.43;;;27.40;64.50;;;;;;4392745;32;20216;-71
2021/07/20 02:31:19;;;;;;;12.95;8.40;;;27.40;66.00;;;;;;4367893;32;20070;-72
2021/07/20 02:33:46;;;;;;;12.40;7.60;;;27.40;64.90;;;;;;4368070;32;20091;-72
2021/07/20 02:36:13;;;;;;;9.52;7.65;;;27.50;65.00;;;;;;4380766;32;20083;-73
2021/07/20 02:38:39;;;;;;;11.10;7.82;;;27.50;67.20;;;;;;4367717;32;20073;-72
2021/07/20 02:41:06;;;;;;;13.55;8.90;;;27.40;68.10;;;;;;4368252;32;20070;-73
2021/07/20 02:43:32;;;;;;;13.65;8.32;;;27.40;69.30;;;;;;4366013;32;20162;-72
2021/07/20 02:45:58;;;;;;;9.60;7.78;;;27.50;68.40;;;;;;4379090;32;20080;-71
2021/07/20 02:48:25;;;;;;;10.07;7.65;;;27.60;68.70;;;;;;4391975;32;20233;-72
2021/07/20 02:50:52;;;;;;;10.55;7.87;;;27.60;68.50;;;;;;4405750;32;20084;-72
2021/07/20 02:53:19;;;;;;;9.85;7.45;;;27.60;68.10;;;;;;4393265;32;20080;-72
2021/07/20 02:55:45;;;;;;;10.60;7.55;;;27.70;68.20;;;;;;4390549;32;20068;-81
2021/07/20 02:58:11;;;;;;;10.57;7.78;;;27.70;68.20;;;;;;4380711;32;20074;-72
2021/07/20 03:00:38;;;;;;;11.40;7.50;;;27.70;68.40;;;;;;4380322;32;20104;-73
2021/07/20 03:03:05;;;;;;;10.60;7.55;;;27.70;68.00;;;;;;4367809;32;20511;-73
2021/07/20 03:05:31;;;;;;;11.52;7.87;;;27.80;67.90;;;;;;4367734;32;20069;-73
2021/07/20 03:07:59;;;;;;;8.40;7.47;;;27.80;68.00;;;;;;4380209;32;20080;-72
2021/07/20 03:10:30;;;;;;;11.82;8.18;;;27.90;67.60;;;;;;4380040;32;20082;-73
2021/07/20 03:13:01;;;;;;;9.57;7.90;;;27.90;65.40;;;;;;4356093;32;20096;-73
2021/07/20 03:15:27;;;;;;;11.35;7.70;;;28.00;65.30;;;;;;4368178;32;20575;-72
2021/07/20 03:17:54;;;;;;;10.07;7.55;;;28.00;65.70;;;;;;4354985;32;20078;-73
2021/07/20 03:20:21;;;;;;;9.00;7.87;;;28.10;65.80;;;;;;4367968;32;20542;-72
2021/07/20 03:22:47;;;;;;;9.85;8.05;;;28.10;64.80;;;;;;4380580;32;20105;-73
2021/07/20 03:25:14;;;;;;;11.20;7.55;;;28.20;65.20;;;;;;4368121;32;20083;-72
2021/07/20 03:27:41;;;;;;;13.00;8.05;;;28.20;63.50;;;;;;4380123;32;20157;-71
2021/07/20 03:30:10;;;;;;;9.55;7.90;;;28.30;63.10;;;;;;4367894;32;20178;-72
2021/07/20 03:32:37;;;;;;;11.63;8.45;;;28.30;61.30;;;;;;4393540;32;20113;-72
2021/07/20 03:35:05;;;;;;;10.35;8.05;;;28.30;60.00;;;;;;4358459;32;20080;-72
2021/07/20 03:37:32;;;;;;;10.38;8.18;;;28.30;59.20;;;;;;4371059;32;20084;-71
2021/07/20 03:39:58;;;;;;;10.20;7.60;;;28.40;58.80;;;;;;4395252;32;20066;-73
2021/07/20 03:42:25;;;;;;;11.60;8.30;;;28.40;58.30;;;;;;4370088;32;20081;-74
2021/07/20 03:44:52;;;;;;;9.63;7.82;;;28.40;57.90;;;;;;4357737;32;20533;-73
2021/07/20 03:47:19;;;;;;;10.98;7.50;;;28.50;57.20;;;;;;4357949;32;20075;-74
2021/07/20 03:49:46;;;;;;;9.90;8.00;;;28.60;56.60;;;;;;4370104;32;20447;-73
2021/07/20 03:52:14;;;;;;;10.30;8.30;;;28.70;56.00;;;;;;4370165;32;20149;-73
2021/07/20 03:54:40;;;;;;;12.35;7.75;;;28.70;55.20;;;;;;4383124;32;20057;-73
2021/07/20 03:57:06;;;;;;;10.77;7.68;;;28.70;55.50;;;;;;4371641;32;20062;-72
2021/07/20 03:59:33;;;;;;;10.80;8.10;;;28.70;55.60;;;;;;4395188;32;20077;-73
2021/07/20 04:02:04;;;;;;;12.85;8.63;;;28.70;55.50;;;;;;4369998;32;20069;-73
2021/07/20 04:04:35;;;;;;;12.48;8.30;;;28.70;55.00;;;;;;4370556;32;20077;-72
2021/07/20 04:07:01;;;;;;;10.13;7.78;;;28.80;54.50;;;;;;4382692;32;20081;-72
2021/07/20 04:09:28;;;;;;;9.20;7.70;;;28.90;54.30;;;;;;4369993;32;20069;-72
2021/07/20 04:11:55;;;;;;;12.05;8.40;;;29.00;54.40;;;;;;4381917;32;20153;-72
2021/07/20 04:14:21;;;;;;;12.95;8.90;;;28.90;54.10;;;;;;4382690;32;20058;-73
2021/07/20 04:16:47;;;;;;;11.60;8.43;;;29.10;53.80;;;;;;4382488;32;20062;-72
2021/07/20 04:19:16;;;;;;;11.45;7.75;;;29.20;52.90;;;;;;4382442;32;20092;-73
2021/07/20 04:21:42;;;;;;;13.35;8.57;;;29.30;53.30;;;;;;4382752;32;20073;-72
2021/07/20 04:24:11;;;;;;;15.57;9.43;;;29.40;52.90;;;;;;4370232;32;20088;-72
2021/07/20 04:26:42;;;;;;;11.23;8.07;;;29.40;52.90;;;;;;4370275;32;20084;-72
2021/07/20 04:29:08;;;;;;;11.80;8.30;;;29.40;52.00;;;;;;4370508;32;20102;-73
2021/07/20 04:31:34;;;;;;;12.75;8.38;;;29.60;51.60;;;;;;4369963;32;20578;-72
2021/07/20 04:34:01;;;;;;;11.02;8.15;;;29.60;50.30;;;;;;4381778;32;20104;-72
2021/07/20 04:36:27;;;;;;;11.50;8.23;;;29.60;50.30;;;;;;4394952;32;20069;-73
2021/07/20 04:38:54;;;;;;;9.55;7.85;;;29.90;49.40;;;;;;4382369;32;20085;-73
2021/07/20 04:41:20;;;;;;;10.30;7.80;;;31.50;44.60;;;;;;4381638;32;20587;-73
2021/07/20 04:43:47;;;;;;;11.50;8.15;;;32.20;41.30;;;;;;4369235;32;20089;-73
2021/07/20 04:46:14;;;;;;;13.40;8.20;;;32.70;40.20;;;;;;4394213;32;20070;-72
2021/07/20 04:48:40;;;;;;;11.88;9.05;;;33.40;38.90;;;;;;4369355;32;20073;-72
2021/07/20 04:51:07;;;;;;;10.40;8.23;;;33.50;37.60;;;;;;4356775;32;20077;-73
2021/07/20 04:53:38;;;;;;;14.02;7.97;;;33.70;36.40;;;;;;4381662;32;20094;-72
2021/07/20 04:56:05;;;;;;;13.43;8.10;;;33.50;37.20;;;;;;4394290;32;20080;-73
2021/07/20 04:58:33;;;;;;;10.10;7.97;;;33.90;37.30;;;;;;4382334;32;20084;-73
2021/07/20 05:00:59;;;;;;;8.70;7.80;;;34.10;35.30;;;;;;4381655;32;20164;-72
2021/07/20 05:03:25;;;;;;;10.18;8.02;;;33.90;35.20;;;;;;4382241;32;20530;-72
2021/07/20 05:05:54;;;;;;;11.73;8.07;;;33.20;35.30;;;;;;4369032;32;20078;-72
2021/07/20 05:08:21;;;;;;;12.10;8.73;;;32.80;38.00;;;;;;4369324;32;20149;-72
2021/07/20 05:10:49;;;;;;;10.93;8.32;;;33.40;36.30;;;;;;4380982;32;20085;-72
2021/07/20 05:13:17;;;;;;;10.20;6.90;;;33.20;36.00;;;;;;4394392;32;20172;-72
2021/07/20 05:15:55;;;;;;;10.85;8.50;;;33.50;36.70;;;;;;4381639;32;20455;-72
2021/07/20 05:18:22;;;;;;;11.63;8.43;;;32.90;36.40;;;;;;4371810;32;20108;-72
2021/07/20 05:20:50;;;;;;;10.07;8.07;;;32.60;37.30;;;;;;4356743;32;20080;-74
2021/07/20 05:23:18;;;;;;;10.73;8.23;;;33.00;37.70;;;;;;4381432;32;20089;-72
2021/07/20 05:25:52;;;;;;;10.95;7.78;;;33.20;36.10;;;;;;4368895;32;20073;-71
2021/07/20 05:28:18;;;;;;;10.73;7.20;;;33.40;36.00;;;;;;4381979;32;20499;-72
2021/07/20 05:30:45;;;;;;;11.25;8.00;;;32.90;37.40;;;;;;4368397;32;20471;-72
2021/07/20 05:33:11;;;;;;;9.82;8.07;;;33.40;35.40;;;;;;4369560;32;20169;-73
2021/07/20 05:35:38;;;;;;;11.93;9.05;;;33.00;35.80;;;;;;4394393;32;20174;-71
2021/07/20 05:38:04;;;;;;;14.68;8.80;;;33.00;35.50;;;;;;4393905;32;20156;-72
2021/07/20 05:40:30;;;;;;;15.60;9.60;;;33.30;35.60;;;;;;4381596;32;20092;-71
2021/07/20 05:42:57;;;;;;;10.20;8.25;;;34.30;33.70;;;;;;4356887;32;20076;-71
2021/07/20 05:45:24;;;;;;;10.40;7.30;;;34.60;33.00;;;;;;4368791;32;20095;-72
2021/07/20 05:47:51;;;;;;;12.63;8.45;;;33.80;34.00;;;;;;4381558;32;20066;-72
2021/07/20 05:50:18;;;;;;;11.10;7.93;;;34.80;33.00;;;;;;4393692;32;20077;-72
2021/07/20 05:52:48;;;;;;;10.25;8.18;;;33.30;34.90;;;;;;4356214;32;20148;-72
2021/07/20 05:55:14;;;;;;;10.88;8.40;;;33.40;35.60;;;;;;4392675;32;20081;-73
2021/07/20 05:57:45;;;;;;;12.13;8.38;;;33.00;36.60;;;;;;4368853;32;20527;-71
2021/07/20 06:00:14;;;;;;;13.38;8.27;;;32.20;38.50;;;;;;4369583;32;20071;-72
2021/07/20 06:02:43;;;;;;;12.70;8.52;;;32.60;39.40;;;;;;4369182;32;20089;-72
2021/07/20 06:05:13;;;;;;;11.63;8.48;;;33.20;36.00;;;;;;4368698;32;20158;-71
2021/07/20 06:07:40;;;;;;;12.02;8.40;;;33.40;37.00;;;;;;4368481;32;20086;-72
2021/07/20 06:10:07;;;;;;;10.13;8.73;;;33.00;37.60;;;;;;4368740;32;20544;-71
2021/07/20 06:12:33;;;;;;;13.68;10.15;;;32.80;37.40;;;;;;4368283;32;20074;-72
2021/07/20 06:14:59;;;;;;;11.90;9.50;;;33.50;35.00;;;;;;4393120;32;20230;-71
2021/07/20 06:17:27;;;;;;;10.93;8.70;;;32.60;37.00;;;;;;4368078;32;20088;-72
2021/07/20 06:19:53;;;;;;;9.95;8.57;;;33.10;35.60;;;;;;4355907;32;20073;-71
2021/07/20 06:22:24;;;;;;;12.95;9.27;;;33.40;36.40;;;;;;4380692;32;20069;-71
2021/07/20 06:24:51;;;;;;;9.93;7.95;;;33.40;35.70;;;;;;4380931;32;20085;-72
2021/07/20 06:27:17;;;;;;;12.15;9.00;;;33.80;36.50;;;;;;4380557;32;20080;-70
2021/07/20 06:29:45;;;;;;;11.88;9.02;;;33.90;35.00;;;;;;4367989;32;20058;-73
2021/07/20 06:32:13;;;;;;;11.35;8.23;;;34.10;34.50;;;;;;4368277;32;20088;-73
2021/07/20 06:34:42;;;;;;;14.10;8.40;;;33.80;34.20;;;;;;4368319;32;20515;-73
2021/07/20 06:37:09;;;;;;;10.10;8.32;;;33.30;36.30;;;;;;4380980;32;20144;-72
2021/07/20 06:39:39;;;;;;;10.18;8.10;;;33.80;36.30;;;;;;4357751;32;20079;-72
2021/07/20 06:42:06;;;;;;;9.45;7.87;;;34.00;34.90;;;;;;4381769;32;20096;-70
2021/07/20 06:44:32;;;;;;;9.43;8.02;;;33.80;35.40;;;;;;4381363;32;20168;-74
2021/07/20 06:47:00;;;;;;;11.25;8.90;;;33.80;35.80;;;;;;4367951;32;20085;-72
2021/07/20 06:49:27;;;;;;;13.98;8.80;;;33.60;35.30;;;;;;4380676;32;20079;-73
2021/07/20 06:51:53;;;;;;;12.07;8.00;;;33.30;36.90;;;;;;4393597;32;20073;-73
2021/07/20 06:54:19;;;;;;;12.37;8.90;;;33.10;36.40;;;;;;4381147;32;20085;-73
2021/07/20 06:56:54;;;;;;;12.25;8.88;;;32.60;37.60;;;;;;4380129;32;20099;-75
2021/07/20 06:59:21;;;;;;;11.32;9.00;;;32.70;38.60;;;;;;4368974;32;20082;-75
2021/07/20 07:01:47;;;;;;;11.15;8.85;;;33.00;37.50;;;;;;4355500;32;20516;-74
2021/07/20 07:04:55;;;;;;;12.27;8.70;;;32.90;37.60;;;;;;4392423;32;20462;-74
2021/07/20 07:07:22;;;;;;;11.45;8.40;;;32.60;37.80;;;;;;4367901;32;20074;-76
2021/07/20 07:09:50;;;;;;;10.55;8.45;;;32.60;37.00;;;;;;4377611;32;20077;-67
2021/07/20 07:12:17;;;;;;;11.27;8.15;;;32.40;38.30;;;;;;4379937;32;20074;-63
2021/07/20 07:14:43;;;;;;;10.38;7.97;;;32.30;38.50;;;;;;4391926;32;20085;-61
2021/07/20 07:17:10;;;;;;;8.95;8.00;;;32.00;39.00;;;;;;4380171;32;20084;-62
2021/07/20 07:19:36;;;;;;;9.63;8.48;;;32.10;38.90;;;;;;4392333;32;20089;-62
2021/07/20 07:22:03;;;;;;;11.35;8.70;;;32.60;37.70;;;;;;4379731;32;20062;-61
2021/07/20 07:24:29;;;;;;;12.23;8.15;;;32.70;37.80;;;;;;4390933;32;20073;-63
2021/07/20 07:26:56;;;;;;;13.18;7.62;;;32.50;37.90;;;;;;4364720;32;20174;-64
2021/07/20 07:32:02;;;;;;;10.15;8.13;;;32.60;38.70;;;;;;3811868;37;20051;-63
2021/07/20 07:34:29;;;;;;;11.32;8.65;;;33.00;37.60;;;;;;4368008;32;20082;-65
2021/07/20 07:36:55;;;;;;;14.35;8.80;;;33.70;36.90;;;;;;4359705;32;20081;-63
2021/07/20 07:39:23;;;;;;;12.63;8.60;;;33.50;36.50;;;;;;4360015;32;20182;-68
2021/07/20 07:41:49;;;;;;;9.30;8.27;;;33.60;37.40;;;;;;4353560;32;20157;-62
2021/07/20 07:44:16;;;;;;;10.80;8.35;;;33.70;35.80;;;;;;4350041;32;20190;-62
2021/07/20 07:46:43;;;;;;;11.68;8.55;;;33.40;36.70;;;;;;4358153;32;20100;-69
2021/07/20 07:49:10;;;;;;;17.10;9.23;;;33.20;36.70;;;;;;4326661;32;20118;-69
2021/07/20 07:51:39;;;;;;;12.48;9.43;;;33.20;37.20;;;;;;4363231;32;20074;-72
2021/07/20 07:54:05;;;;;;;10.60;8.05;;;33.90;36.50;;;;;;4335879;32;20083;-69
2021/07/20 07:56:31;;;;;;;10.02;8.10;;;34.40;34.20;;;;;;4366207;32;20146;-72
2021/07/20 07:58:59;;;;;;;13.88;9.20;;;34.10;34.70;;;;;;4349486;32;20183;-71
2021/07/20 08:01:27;;;;;;;9.93;8.55;;;33.80;35.00;;;;;;4351644;32;20125;-75
2021/07/20 08:03:55;;;;;;;10.38;8.65;;;33.80;35.30;;;;;;4364172;32;20077;-75
2021/07/20 08:06:22;;;;;;;10.57;8.60;;;34.10;35.30;;;;;;4325663;32;20153;-79
2021/07/20 08:08:53;;;;;;;10.57;8.25;;;34.00;34.80;;;;;;4341774;32;20143;-71
2021/07/20 08:11:22;;;;;;;10.63;8.88;;;33.50;35.70;;;;;;4357366;32;20106;-77
2021/07/20 08:13:49;;;;;;;11.07;8.35;;;33.80;35.60;;;;;;4359678;32;20199;-75
2021/07/20 08:16:15;;;;;;;11.60;8.93;;;34.40;35.00;;;;;;4361589;32;20070;-79
2021/07/20 08:18:42;;;;;;;10.32;8.60;;;34.50;33.30;;;;;;4349133;32;20098;-76
2021/07/20 08:21:09;;;;;;;11.02;8.77;;;34.00;35.20;;;;;;4347324;32;20447;-78
2021/07/20 08:23:36;;;;;;;10.32;8.40;;;34.20;33.70;;;;;;4348731;32;20098;-76
2021/07/20 08:26:15;;;;;;;11.27;8.40;;;34.20;33.40;;;;;;4348768;32;20159;-78
2021/07/20 08:29:05;;;;;;;9.25;7.93;;;34.10;34.70;;;;;;4363020;32;20106;-72
2021/07/20 08:32:01;;;;;;;10.93;8.32;;;34.50;32.30;;;;;;4359038;32;20485;-70
2021/07/20 08:34:29;;;;;;;;;;;33.90;33.60;;;;;;4368734;32;20086;-68
2021/07/20 08:36:56;;;;;;;10.77;8.05;;;34.40;32.60;;;;;;4364571;32;20429;-66
2021/07/20 08:39:23;;;;;;;12.32;8.27;;;34.30;32.70;;;;;;4336421;32;20074;-68
2021/07/20 08:41:58;;;;;;;10.27;8.18;;;34.60;31.50;;;;;;4353650;32;20067;-63
2021/07/20 08:45:04;;;;;;;9.43;8.07;;;35.00;30.90;;;;;;4357244;32;20086;-69
2021/07/20 08:48:20;;;;;;;10.93;8.05;;;34.50;31.20;;;;;;4344208;32;20078;-69
2021/07/20 08:50:57;;;;;;;8.43;7.53;;;34.90;30.00;;;;;;4331552;32;20071;-68
2021/07/20 08:54:03;;;;;;;8.77;7.43;;;34.70;30.40;;;;;;4354164;32;20090;-70
2021/07/20 08:56:29;;;;;;;11.50;8.15;;;35.40;29.70;;;;;;4348414;32;20474;-71
2021/07/20 08:59:02;;;;;;;12.68;8.70;;;35.00;29.60;;;;;;4338305;32;20070;-72
2021/07/20 09:02:07;;;;;;;9.18;7.90;;;34.90;29.60;;;;;;4360660;32;21329;-69
2021/07/20 09:04:41;;;;;;;10.20;7.95;;;35.00;29.10;;;;;;4345680;32;20476;-70
2021/07/20 09:07:13;;;;;;;9.88;7.68;;;34.80;29.40;;;;;;4337458;32;20176;-68
2021/07/20 09:09:47;;;;;;;10.20;8.10;;;35.00;29.30;;;;;;4339380;32;20082;-68
2021/07/20 09:12:27;;;;;;;9.35;7.45;;;35.00;28.90;;;;;;4335833;32;20062;-65
2021/07/20 09:15:27;;;;;;;10.30;7.70;;;34.90;29.30;;;;;;4336311;32;20172;-72
2021/07/20 09:18:28;;;;;;;9.40;7.90;;;35.20;29.10;;;;;;4342539;32;20085;-67
2021/07/20 09:21:00;;;;;;;9.88;7.18;;;36.20;27.80;;;;;;4357744;32;20082;-68
2021/07/20 09:24:04;;;;;;;9.07;7.22;;;36.10;27.30;;;;;;4339003;32;20090;-68
2021/07/20 09:26:38;;;;;;;10.10;7.12;;;35.60;27.40;;;;;;4337201;32;20525;-69
2021/07/20 09:29:12;;;;;;;10.45;7.78;;;35.20;27.80;;;;;;4336646;32;20098;-69
2021/07/20 09:31:52;;;;;;;8.38;7.22;;;35.40;27.80;;;;;;4336954;32;20074;-69
2021/07/20 09:34:47;;;;;;;9.00;6.95;;;35.50;27.90;;;;;;4336205;32;20113;-68
2021/07/20 09:37:24;;;;;;;8.38;7.50;;;35.30;27.70;;;;;;4322956;32;20077;-72
2021/07/20 09:40:05;;;;;;;10.90;7.30;;;35.20;28.10;;;;;;4325636;32;20097;-66
2021/07/20 09:42:42;;;;;;;10.98;7.32;;;35.30;27.80;;;;;;4348853;32;20131;-67
2021/07/20 09:45:14;;;;;;;9.48;7.40;;;35.80;27.40;;;;;;4348164;32;20081;-68
2021/07/20 09:48:09;;;;;;;8.40;7.50;;;36.30;27.00;;;;;;4348033;32;20101;-64
2021/07/20 09:50:40;;;;;;;9.95;7.65;;;36.10;27.20;;;;;;4339009;32;20071;-67
2021/07/20 09:53:43;;;;;;;8.70;7.22;;;36.50;26.00;;;;;;4337253;32;20093;-77
2021/07/20 09:56:38;;;;;;;8.60;7.53;;;36.40;26.10;;;;;;4335849;32;20528;-70
2021/07/20 09:59:50;;;;;;;8.65;6.95;;;35.60;26.70;;;;;;4347793;32;20501;-70
2021/07/20 10:02:48;;;;;;;8.38;6.43;;;36.70;26.40;;;;;;4336082;32;20071;-72
2021/07/20 10:05:23;;;;;;;12.32;7.18;;;36.40;25.20;;;;;;4348685;32;20094;-70
2021/07/20 10:07:56;;;;;;;8.57;7.35;;;35.50;27.20;;;;;;4336005;32;20074;-67
2021/07/20 10:10:30;;;;;;;11.50;7.65;;;34.80;27.20;;;;;;4335769;32;20190;-65
2021/07/20 10:13:24;;;;;;;8.85;6.95;;;34.80;27.90;;;;;;4331312;32;20085;-67
2021/07/20 10:16:35;;;;;;;7.97;6.95;;;34.50;28.10;;;;;;4337193;32;20518;-66
2021/07/20 10:19:09;;;;;;;8.77;6.90;;;34.50;28.60;;;;;;4318699;32;20175;-69
2021/07/20 10:21:37;;;;;;;12.48;7.15;;;34.60;28.30;;;;;;4335977;32;20084;-69
2021/07/20 10:24:13;;;;;;;9.63;7.70;;;34.70;28.70;;;;;;4323312;32;20093;-67
2021/07/20 10:27:14;;;;;;;10.77;7.12;;;34.60;28.60;;;;;;4324055;32;20489;-68
2021/07/20 10:29:57;;;;;;;9.55;6.53;;;33.00;32.90;;;;;;4349949;32;20176;-70
2021/07/20 10:32:26;;;;;;;10.90;6.60;;;32.50;34.40;;;;;;4335302;32;20511;-66
2021/07/20 10:34:57;;;;;;;10.57;6.93;;;32.70;34.50;;;;;;4335462;32;20086;-68
2021/07/20 10:37:30;;;;;;;9.73;6.25;;;32.80;34.20;;;;;;4334286;32;20105;-65
2021/07/20 10:40:17;;;;;;;11.82;6.25;;;32.10;32.00;;;;;;4323771;32;20071;-70
2021/07/20 10:43:16;;;;;;;8.95;5.57;;;32.50;31.60;;;;;;4335472;32;20464;-70
2021/07/20 10:45:42;;;;;;;10.82;5.85;;;32.90;30.00;;;;;;4339946;32;20106;-68
2021/07/20 10:48:12;;;;;;;11.85;5.87;;;33.30;29.90;;;;;;4316341;32;20139;-68
2021/07/20 10:50:44;;;;;;;8.98;5.68;;;33.00;29.80;;;;;;4334245;32;20445;-68
2021/07/20 10:53:43;;;;;;;7.15;5.80;;;33.30;29.50;;;;;;4347315;32;20093;-74
2021/07/20 10:56:58;;;;;;;11.82;5.57;;;33.60;29.10;;;;;;4323154;33;20070;-64
2021/07/20 11:00:09;;;;;;;48.55;8.98;;;33.20;29.60;;;;;;4334903;32;20071;-68
2021/07/20 11:03:09;;;;;;;65.70;10.60;;;30.00;40.20;;;;;;4325694;32;20078;-66
2021/07/20 11:05:36;;;;;;;47.00;8.38;;;28.50;46.90;;;;;;4327353;32;20171;-65
2021/07/20 11:08:07;;;;;;;48.85;9.43;;;27.70;53.20;;;;;;4346077;32;20095;-70
2021/07/20 11:10:53;;;;;;;37.75;8.05;;;27.50;56.40;;;;;;4340355;33;20085;-77
2021/07/20 11:13:31;;;;;;;48.10;8.95;;;27.40;62.20;;;;;;4335555;32;20062;-75
2021/07/20 11:15:59;;;;;;;46.47;8.70;;;25.10;99.90;;;;;;4343092;32;20074;-70
2021/07/20 11:18:37;;;;;;;34.58;6.70;;;25.00;99.90;;;;;;4319499;32;20128;-74
2021/07/20 11:21:05;;;;;;;14.18;4.15;;;24.80;99.90;;;;;;4345915;32;20085;-75
2021/07/20 11:23:38;;;;;;;17.50;4.37;;;24.70;99.90;;;;;;4324742;32;20082;-72
2021/07/20 11:26:04;;;;;;;15.57;5.65;;;24.30;99.90;;;;;;4320055;32;20097;-72
2021/07/20 11:28:31;;;;;;;9.98;4.50;;;23.70;99.90;;;;;;4345797;32;20102;-71
2021/07/20 11:30:57;;;;;;;5.47;3.72;;;23.50;99.90;;;;;;4329924;32;20171;-71
2021/07/20 11:33:57;;;;;;;8.57;4.10;;;23.60;99.90;;;;;;4345549;32;20078;-74
2021/07/20 11:36:25;;;;;;;9.35;4.70;;;23.70;99.90;;;;;;4327606;32;20519;-71
2021/07/20 11:38:55;;;;;;;8.02;4.10;;;23.00;99.90;;;;;;4331188;32;20569;-75
2021/07/20 11:41:42;;;;;;;11.38;4.32;;;22.80;99.90;;;;;;4348617;32;20194;-74
2021/07/20 11:44:38;;;;;;;9.70;4.22;;;22.90;99.90;;;;;;4346001;32;20078;-70
2021/07/20 11:47:31;;;;;;;9.45;4.90;;;22.90;99.90;;;;;;4339585;32;20094;-70
2021/07/20 11:50:32;;;;;;;9.35;4.25;;;23.40;99.90;;;;;;4353176;32;20130;-75
2021/07/20 11:53:09;;;;;;;9.35;4.90;;;23.50;99.90;;;;;;4355858;32;20098;-71
2021/07/20 11:56:26;;;;;;;8.85;4.47;;;23.30;99.90;;;;;;4342868;32;20109;-74
2021/07/20 11:59:29;;;;;;;7.90;4.57;;;23.30;99.90;;;;;;4304353;32;20058;-72
2021/07/20 12:02:32;;;;;;;8.73;4.47;;;23.80;99.90;;;;;;4342192;32;20197;-70
2021/07/20 12:05:09;;;;;;;9.93;5.50;;;23.80;99.90;;;;;;4358889;32;20078;-72
2021/07/20 12:07:43;;;;;;;9.75;4.28;;;23.50;99.90;;;;;;4342569;32;20078;-74
2021/07/20 12:10:52;;;;;;;11.80;4.72;;;23.50;99.90;;;;;;4331478;32;20516;-73
2021/07/20 12:13:20;;;;;;;8.73;4.87;;;23.70;99.90;;;;;;4351810;32;20117;-73
2021/07/20 12:15:52;;;;;;;7.80;4.50;;;23.50;99.90;;;;;;4332697;32;20090;-70
2021/07/20 12:18:20;;;;;;;7.85;4.35;;;23.10;99.90;;;;;;4341015;32;20098;-71
2021/07/20 12:20:46;;;;;;;7.10;4.57;;;22.80;99.90;;;;;;4359973;32;20513;-72
2021/07/20 12:23:13;;;;;;;11.93;5.80;;;22.50;99.90;;;;;;4345536;32;20112;-79
2021/07/20 12:25:39;;;;;;;10.23;5.00;;;22.40;99.90;;;;;;4348796;32;20059;-77
2021/07/20 12:28:06;;;;;;;12.13;5.45;;;22.10;99.90;;;;;;4331463;32;20590;-74
2021/07/20 12:30:32;;;;;;;10.68;5.10;;;22.40;99.90;;;;;;4358864;32;20509;-72
2021/07/20 12:33:10;;;;;;;9.32;5.28;;;22.50;99.90;;;;;;4342050;32;20070;-69
2021/07/20 12:35:38;;;;;;;13.25;5.55;;;22.40;99.90;;;;;;4351663;32;20144;-72
2021/07/20 12:38:08;;;;;;;6.37;4.30;;;22.70;99.90;;;;;;4337061;32;20078;-72
2021/07/20 12:40:37;;;;;;;8.98;4.28;;;22.80;99.90;;;;;;4362124;32;20157;-73
2021/07/20 12:43:13;;;;;;;8.75;4.32;;;23.20;99.90;;;;;;4335347;32;20085;-73
2021/07/20 12:45:41;;;;;;;11.50;5.22;;;23.20;99.90;;;;;;4354521;32;20185;-75
2021/07/20 12:48:24;;;;;;;6.65;3.95;;;22.90;99.90;;;;;;4355772;32;20094;-74
2021/07/20 12:50:52;;;;;;;7.28;4.15;;;22.90;99.90;;;;;;4352855;32;20074;-78
2021/07/20 12:53:20;;;;;;;8.43;4.30;;;23.20;99.90;;;;;;4352138;32;20654;-74
2021/07/20 12:55:47;;;;;;;8.13;4.50;;;23.20;99.90;;;;;;4343628;32;20086;-73
2021/07/20 12:58:17;;;;;;;7.15;4.18;;;23.20;99.90;;;;;;4349310;32;20156;-72
2021/07/20 13:00:44;;;;;;;9.23;4.82;;;23.40;99.90;;;;;;4343730;32;20162;-78
2021/07/20 13:03:10;;;;;;;8.23;4.90;;;23.30;99.90;;;;;;4344975;32;20168;-78
2021/07/20 13:05:41;;;;;;;10.57;4.80;;;23.40;99.90;;;;;;4331195;32;20073;-71
2021/07/20 13:08:07;;;;;;;7.82;5.15;;;23.30;99.90;;;;;;4323744;32;20085;-74
2021/07/20 13:10:33;;;;;;;6.90;4.72;;;23.00;99.90;;;;;;4348322;32;20089;-72
2021/07/20 13:13:05;;;;;;;11.35;4.97;;;23.00;99.90;;;;;;4335944;32;20145;-71